Latest Weather Observations for Oakey

IDQ60901

Issued at 9:51 pm EST Friday 19 December 2014 (issued every 10 minutes, with the page automatically refreshed every 10 minutes)

About weather observations | Map of Brisbane area stations | Latest observations for Brisbane area | Other Formats
Station Details ID: 041359 Name: OAKEY AERO Lat: -27.40 Lon: 151.74 Height: 405.69 m
Data from the previous 72 hours. | See also: Recent months at Oakey
Date/Time
EST
Tmp

°C
App
Tmp
°C
Dew
Point
°C
Rel
Hum
%
Delta-T

°C
Wind Press
QNH
hPa
Press
MSL
hPa
Rain
since
9 am
mm
Dir
 
Spd
km/h
Gust
km/h
Spd
kts
Gust
kts
19/09:30pm 21.7 22.6 16.0 70 3.5 ESE 6 9 3 5 1013.8 - 0.0
19/09:00pm 21.9 22.7 16.4 71 3.4 ENE 7 9 4 5 1013.5 1011.4 0.0
19/08:30pm 22.1 23.0 17.5 75 2.9 NE 9 13 5 7 1013.2 - 0.0
19/08:00pm 23.2 24.2 16.3 65 4.3 NE 6 7 3 4 1012.9 - 0.0
19/07:30pm 26.1 26.7 11.8 41 8.3 CALM 0 0 0 0 1012.6 - 0.0
19/07:00pm 26.4 26.4 12.5 42 8.2 SSW 4 7 2 4 1012.3 - 0.0
19/06:30pm 28.3 28.2 13.8 41 8.8 SW 7 9 4 5 1012.0 - 0.0
19/06:00pm 29.1 26.5 10.7 32 10.7 SW 15 22 8 12 1011.7 1009.6 0.0
19/05:30pm 30.2 26.3 8.6 26 12.2 SW 19 30 10 16 1011.4 - 0.0
19/05:00pm 30.6 25.5 7.7 24 12.7 SW 24 32 13 17 1011.3 - 0.0
19/04:30pm 31.0 26.6 7.5 23 13.0 SW 20 33 11 18 1011.2 - 0.0
19/04:00pm 30.9 27.7 11.8 31 11.3 SW 20 28 11 15 1011.2 - 0.0
19/03:30pm 30.4 26.9 10.9 30 11.4 WSW 20 30 11 16 1011.3 - 0.0
19/03:00pm 30.4 26.0 10.4 29 11.6 SSW 24 30 13 16 1011.6 1009.5 0.0
19/02:30pm 30.4 27.6 13.2 35 10.4 SSW 20 30 11 16 1011.8 - 0.0
19/02:00pm 29.7 27.8 14.3 39 9.5 WSW 17 24 9 13 1012.1 - 0.0
19/01:30pm 29.3 26.2 12.3 35 10.1 SW 20 28 11 15 1012.6 - 0.0
19/01:00pm 28.7 27.8 15.9 45 8.0 W 15 24 8 13 1012.9 - 0.0
19/12:30pm 27.8 26.6 16.1 49 7.3 SW 17 22 9 12 1013.2 - 0.0
19/12:00pm 27.0 25.4 16.6 53 6.6 WSW 20 32 11 17 1013.7 1011.6 0.0
19/11:30am 26.8 25.6 18.4 60 5.4 SW 22 28 12 15 1014.0 - 0.0
19/11:00am 25.7 24.9 17.9 62 5.0 WSW 19 30 10 16 1014.1 - 0.0
19/10:30am 24.9 24.8 18.8 69 3.9 WSW 17 24 9 13 1014.3 - 0.0
19/10:00am 24.2 23.9 17.4 65 4.3 WSW 15 22 8 12 1014.2 - 0.0
19/09:30am 23.7 23.0 17.4 68 4.0 WSW 17 24 9 13 1014.3 - 0.0
19/09:00am 22.9 21.8 17.4 71 3.5 W 19 26 10 14 1014.5 1012.4 12.4
19/08:30am 23.0 22.2 18.1 74 3.1 W 19 24 10 13 1014.5 - 12.4
19/08:00am 21.9 21.7 17.5 76 2.8 W 15 19 8 10 1014.6 - 12.4
19/07:30am 21.1 21.8 17.9 82 2.0 WNW 11 15 6 8 1014.4 - 12.4
19/07:00am 20.5 21.5 17.7 84 1.8 W 9 11 5 6 1014.5 - 12.2
19/06:30am 19.8 20.9 17.2 85 1.6 WNW 7 9 4 5 1014.1 - 12.2
19/05:30am 19.1 20.2 17.2 89 1.2 WNW 7 9 4 5 1013.7 - 12.2
19/05:00am 19.0 19.7 17.0 88 1.2 NW 9 13 5 7 1013.5 - 12.2
19/04:30am 19.4 20.7 18.4 94 0.6 NNW 9 13 5 7 1013.4 - 12.2
19/04:00am 19.5 20.0 18.3 93 0.8 NNW 13 17 7 9 1013.6 - 12.2
19/03:30am 19.5 19.9 18.2 92 0.8 N 13 17 7 9 1013.5 - 12.2
19/03:28am 19.6 19.7 18.3 92 0.8 N 15 17 8 9 1013.4 - 12.2
19/03:06am 20.0 20.6 18.7 92 0.8 N 13 17 7 9 1013.3 - 12.2
19/03:00am 20.0 20.4 19.0 94 0.6 N 15 17 8 9 1013.1 1010.9 12.2
19/02:08am 20.2 22.3 18.9 92 0.8 NE 6 7 3 4 1013.9 - 12.0
19/02:00am 20.2 22.8 18.3 89 1.2 ESE 2 7 1 4 1013.7 - 12.0
19/01:45am 20.3 23.2 19.1 93 0.8 S 2 6 1 3 1013.7 - 12.0
19/01:30am 20.3 23.5 18.8 91 1.0 CALM 0 0 0 0 1013.8 - 12.0
19/01:00am 20.3 23.1 18.8 91 1.0 WSW 2 6 1 3 1014.2 - 11.8
19/12:30am 20.3 23.2 19.1 93 0.8 NW 2 7 1 4 1014.3 - 11.8
19/12:00am 20.2 21.7 18.9 92 0.8 NNW 9 9 5 5 1014.4 1012.3 11.6
 
Date/Time
EST
Tmp

°C
App
Tmp
°C
Dew
Point
°C
Rel
Hum
%
Delta-T

°C
Wind Press
QNH
hPa
Press
MSL
hPa
Rain
since
9 am
mm
Dir
 
Spd
km/h
Gust
km/h
Spd
kts
Gust
kts
18/11:30pm 20.3 21.1 19.0 92 0.8 NNW 13 15 7 8 1014.4 - 11.2
18/11:00pm 20.5 21.1 19.5 94 0.6 W 15 20 8 11 1014.8 - 10.4
18/10:30pm 20.6 19.9 19.6 94 0.6 W 22 30 12 16 1014.4 - 9.4
18/10:00pm 21.1 21.2 19.9 93 0.8 W 19 26 10 14 1014.4 - 9.2
18/09:30pm 21.4 23.3 19.7 90 1.1 WSW 9 13 5 7 1014.1 - 9.2
18/09:00pm 21.2 24.3 19.5 90 1.1 ESE 2 7 1 4 1013.1 1010.9 9.2
18/08:30pm 21.3 23.0 19.4 89 1.2 SW 9 15 5 8 1012.6 - 9.2
18/08:00pm 21.2 21.4 19.3 89 1.2 NNW 17 22 9 12 1013.5 - 9.2
18/07:30pm 21.2 21.3 19.1 88 1.3 NNW 17 19 9 10 1013.7 - 9.2
18/07:00pm 21.4 24.1 19.5 89 1.2 NW 4 9 2 5 1013.2 - 9.2
18/06:30pm 21.3 23.5 19.6 90 1.1 WSW 7 9 4 5 1013.8 - 9.0
18/06:18pm 21.4 23.3 19.7 90 1.1 WNW 9 13 5 7 1013.9 - 8.6
18/06:00pm 21.6 22.9 20.1 91 1.0 W 13 15 7 8 1013.9 1011.8 7.6
18/05:54pm 21.7 22.9 20.0 90 1.1 WNW 13 15 7 8 1013.9 - 6.8
18/05:30pm 21.9 23.1 19.8 88 1.4 W 13 19 7 10 1013.3 - 5.4
18/05:00pm 21.8 20.3 19.5 87 1.5 SW 26 41 14 22 1011.8 - 5.2
18/04:42pm 21.6 17.7 19.5 88 1.4 SW 39 50 21 27 1011.4 - 4.8
18/04:30pm 21.5 16.9 19.6 89 1.2 WSW 43 54 23 29 1011.5 - 4.2
18/04:27pm 21.6 17.0 19.7 89 1.2 WSW 43 54 23 29 1011.6 - 4.0
18/04:25pm 21.6 17.5 19.9 90 1.1 WSW 41 54 22 29 1011.5 - 3.8
18/04:00pm 21.5 14.7 20.3 93 0.8 WSW 56 78 30 42 1011.0 - 2.8
18/03:53pm 21.5 13.6 19.2 87 1.5 WSW 59 78 32 42 1010.6 - 0.8
18/03:51pm 22.3 15.6 19.7 85 1.7 WSW 54 67 29 36 1010.5 - 0.0
18/03:40pm 25.6 14.3 17.0 59 5.4 WSW 72 91 39 49 1009.6 - 0.0
18/03:39pm 26.3 14.9 16.8 56 6.0 W 72 83 39 45 1009.4 - 0.0
18/03:37pm 29.9 23.5 16.0 43 8.8 W 44 80 24 43 1009.0 - 0.0
18/03:30pm 32.2 29.6 14.8 35 10.9 NW 22 30 12 16 1007.5 - 0.0
18/03:00pm 32.7 29.9 14.3 32 11.5 NNW 22 32 12 17 1007.2 1005.1 0.0
18/02:30pm 33.6 30.0 14.1 30 12.1 NNW 26 30 14 16 1006.9 - 0.0
18/02:00pm 34.5 32.7 15.4 32 12.1 NNW 19 24 10 13 1007.1 - 0.0
18/01:30pm 35.3 33.0 14.0 28 13.3 N 19 28 10 15 1007.5 - 0.0
18/01:00pm 35.0 32.4 13.8 28 13.2 N 20 32 11 17 1008.3 - 0.0
18/12:30pm 34.4 31.8 13.3 28 13.0 N 19 24 10 13 1009.2 - 0.0
18/12:00pm 33.9 31.5 13.9 30 12.4 NNW 19 28 10 15 1009.5 1007.4 0.0
18/11:38am 34.6 30.4 13.4 28 13.1 N 28 35 15 19 1009.9 - 0.0
18/11:30am 33.7 32.1 12.7 28 12.8 N 13 17 7 9 1010.0 - 0.0
18/11:00am 33.3 30.9 14.4 32 11.8 N 20 28 11 15 1010.3 - 0.0
18/10:30am 32.6 30.7 14.2 32 11.4 NNW 17 28 9 15 1011.0 - 0.0
18/10:00am 32.1 30.7 15.6 37 10.4 N 17 24 9 13 1011.5 - 0.0
18/09:30am 31.2 29.2 13.9 35 10.6 NNE 17 32 9 17 1011.8 - 0.0
18/09:00am 30.3 28.1 14.4 38 9.8 NNE 19 28 10 15 1012.1 1010.0 0.0
18/08:30am 29.7 27.7 15.4 42 8.9 NE 20 30 11 16 1012.2 - 0.0
18/08:00am 28.2 26.5 14.8 44 8.3 NE 17 22 9 12 1012.3 - 0.0
18/07:30am 27.2 26.3 15.9 50 7.0 NE 15 20 8 11 1012.4 - 0.0
18/07:00am 25.8 25.0 15.2 52 6.5 NE 13 17 7 9 1012.2 - 0.0
18/06:30am 24.3 22.0 14.7 55 5.8 NE 20 24 11 13 1011.8 - 0.0
18/06:00am 23.3 22.5 15.1 60 5.0 NE 13 17 7 9 1011.8 1009.7 0.0
18/05:30am 21.5 19.8 14.6 65 4.1 NE 17 20 9 11 1011.4 - 0.0
18/05:00am 21.4 20.1 14.8 66 4.0 ENE 15 19 8 10 1011.1 - 0.0
18/04:30am 21.9 19.9 15.0 65 4.2 ENE 19 22 10 12 1011.1 - 0.0
18/04:00am 21.8 19.9 15.2 66 4.0 NE 19 20 10 11 1010.8 - 0.0
18/03:30am 21.4 20.0 15.5 69 3.6 E 17 19 9 10 1010.5 - 0.0
18/03:00am 21.8 20.7 15.4 67 3.9 ENE 15 17 8 9 1010.8 1008.6 0.0
18/02:30am 22.8 21.3 15.4 63 4.5 NE 17 20 9 11 1010.6 - 0.0
18/02:00am 22.6 21.3 15.9 66 4.1 ENE 17 20 9 11 1010.5 - 0.0
18/01:30am 21.7 19.9 15.5 68 3.8 ESE 19 20 10 11 1010.3 - 0.0
18/01:00am 23.2 21.7 15.3 61 4.8 NNE 17 20 9 11 1009.8 - 0.0
18/12:30am 23.3 22.4 14.8 59 5.1 NE 13 17 7 9 1010.0 - 0.0
18/12:00am 22.9 22.1 15.0 61 4.8 N 13 17 7 9 1009.6 1007.5 0.0
 
Date/Time
EST
Tmp

°C
App
Tmp
°C
Dew
Point
°C
Rel
Hum
%
Delta-T

°C
Wind Press
QNH
hPa
Press
MSL
hPa
Rain
since
9 am
mm
Dir
 
Spd
km/h
Gust
km/h
Spd
kts
Gust
kts
17/11:30pm 23.8 22.5 14.8 57 5.4 N 15 19 8 10 1009.6 - 0.0
17/11:00pm 24.3 24.7 16.3 61 5.0 NNE 9 13 5 7 1009.8 - 0.0
17/10:30pm 24.0 24.0 17.3 66 4.2 N 13 20 7 11 1009.6 - 0.0
17/10:00pm 24.9 26.3 17.9 65 4.5 NE 7 9 4 5 1009.5 - 0.0
17/09:30pm 24.8 24.8 17.3 63 4.7 SE 13 15 7 8 1009.2 - 0.0
17/09:00pm 26.9 27.5 15.9 51 6.9 N 7 9 4 5 1008.6 1006.4 0.0
17/08:30pm 27.1 28.8 16.1 51 6.9 NE 2 6 1 3 1008.3 - 0.0
17/08:00pm 27.9 28.2 15.9 48 7.5 NNW 9 11 5 6 1007.9 - 0.0
17/07:30pm 29.9 27.5 14.4 38 9.5 N 20 30 11 16 1007.5 - 0.0
17/07:00pm 29.3 28.6 14.3 40 9.2 NNE 11 13 6 7 1007.0 - 0.0
17/06:30pm 32.6 30.7 11.7 28 12.5 NNW 13 17 7 9 1006.4 - 0.0
17/06:00pm 32.2 30.6 13.9 33 11.3 NE 15 17 8 9 1005.8 1003.6 0.0
17/05:30pm 33.4 32.6 14.0 31 12.0 NNW 11 15 6 8 1005.4 - 0.0
17/05:00pm 34.7 31.9 11.2 24 14.0 N 17 20 9 11 1004.8 - 0.0
17/04:30pm 35.8 35.7 13.3 26 13.9 NNW 6 13 3 7 1004.9 - 0.0
17/04:00pm 34.5 33.9 12.2 26 13.5 W 7 13 4 7 1004.9 - 0.0
17/03:30pm 34.6 32.7 10.4 23 14.3 SE 11 15 6 8 1005.1 - 0.0
17/03:00pm 36.1 35.9 14.7 28 13.6 SW 9 17 5 9 1005.6 1003.4 0.0
17/02:30pm 36.1 34.2 11.7 23 14.8 WSW 13 19 7 10 1006.0 - 0.0
17/02:00pm 36.0 33.1 10.9 22 15.0 WSW 17 22 9 12 1006.3 - 0.0
17/01:30pm 35.3 34.3 12.3 25 14.0 NNW 9 22 5 12 1006.6 - 0.0
17/01:00pm 35.4 32.7 13.0 26 13.8 W 19 30 10 16 1006.9 - 0.0
17/12:30pm 35.6 32.8 13.1 25 13.9 W 20 28 11 15 1007.3 - 0.0
17/12:00pm 35.0 32.2 13.2 27 13.5 W 20 28 11 15 1007.6 1005.5 0.0
17/11:30am 34.5 32.1 13.9 29 12.8 WNW 19 33 10 18 1008.0 - 0.0
17/11:00am 34.1 28.4 13.0 28 12.9 W 35 43 19 23 1008.3 - 0.0
17/10:30am 33.7 29.6 13.7 30 12.4 WNW 28 39 15 21 1008.5 - 0.0
17/10:00am 33.2 29.3 12.2 28 12.7 WNW 24 32 13 17 1008.6 - 0.0
17/09:30am 32.7 30.6 14.8 34 11.2 NW 19 28 10 15 1008.7 - 0.0
17/09:00am 31.7 30.3 14.4 35 10.7 NW 15 20 8 11 1008.9 1006.8 0.6
17/08:30am 30.3 27.3 14.8 39 9.6 NW 24 28 13 15 1009.0 - 0.6
17/08:00am 27.8 30.2 17.0 51 6.9 CALM 0 6 0 3 1009.2 - 0.6
17/07:30am 26.3 27.5 16.8 56 6.0 ENE 6 7 3 4 1009.3 - 0.6
17/07:00am 24.8 24.6 16.8 61 5.0 ENE 13 15 7 8 1009.2 - 0.6
17/06:30am 23.7 23.7 17.2 67 4.1 ENE 13 19 7 10 1008.9 - 0.6
17/06:00am 22.3 21.8 16.8 71 3.4 NE 15 19 8 10 1008.6 1006.4 0.6
17/05:30am 20.1 20.8 17.1 83 1.9 E 9 11 5 6 1008.1 - 0.6
17/05:00am 19.8 19.1 16.4 81 2.1 SE 15 17 8 9 1007.6 - 0.6
17/04:30am 19.4 20.1 17.0 86 1.5 ESE 9 11 5 6 1007.1 - 0.6
17/04:00am 19.7 20.3 16.9 84 1.7 SE 9 13 5 7 1006.5 - 0.6
17/03:30am 20.4 21.9 17.6 84 1.8 E 6 9 3 5 1006.4 - 0.6
17/03:00am 20.7 21.2 17.5 82 2.0 NNE 11 13 6 7 1006.6 1004.4 0.6
17/02:30am 21.2 21.8 17.8 81 2.1 ENE 11 13 6 7 1006.5 - 0.6
17/02:00am 21.0 21.2 17.6 81 2.1 ENE 13 15 7 8 1006.5 - 0.6
17/01:30am 21.3 21.8 17.5 79 2.4 NE 11 13 6 7 1006.8 - 0.6
17/01:00am 21.6 22.7 18.0 80 2.3 N 9 11 5 6 1008.0 - 0.6
17/12:30am 22.0 22.1 17.4 75 2.9 NNE 13 15 7 8 1008.6 - 0.6
17/12:00am 22.3 23.3 17.7 75 2.9 ENE 9 9 5 5 1009.3 1007.2 0.6
 
Date/Time
EST
Tmp

°C
App
Tmp
°C
Dew
Point
°C
Rel
Hum
%
Delta-T

°C
Wind Press
QNH
hPa
Press
MSL
hPa
Rain
since
9 am
mm
Dir
 
Spd
km/h
Gust
km/h
Spd
kts
Gust
kts
16/11:30pm 22.9 22.1 16.0 65 4.2 S 15 20 8 11 1010.1 - 0.4
16/11:00pm 25.2 23.0 14.3 50 6.6 SSW 19 24 10 13 1010.7 - 0.2
16/10:30pm 25.2 22.8 14.3 50 6.6 SW 20 28 11 15 1010.7 - 0.2
16/10:00pm 25.4 22.3 14.5 51 6.6 SW 24 33 13 18 1010.8 - 0.2

Latest Capital City Observations: Canberra | Sydney | Melbourne | Brisbane | Adelaide | Perth | Hobart | Darwin

Other Formats:

Comma delimited format used in spreadsheet applications
http://www.bom.gov.au/fwo/IDQ60901/IDQ60901.94552.axf

JavaScript Object Notation format (JSON) in row-major order
http://www.bom.gov.au/fwo/IDQ60901/IDQ60901.94552.json